createdAt,value
2018-07-24T00:00:53.622Z,9.05
2018-07-24T00:03:22.856Z,8.38
2018-07-24T00:05:52.088Z,9.45
2018-07-24T00:08:21.051Z,9.23
2018-07-24T00:10:50.417Z,9.48
2018-07-24T00:13:19.609Z,9.08
2018-07-24T00:15:48.827Z,8.93
2018-07-24T00:18:18.061Z,8.40
2018-07-24T00:20:47.302Z,8.20
2018-07-24T00:23:16.497Z,8.35
2018-07-24T00:25:45.729Z,8.20
2018-07-24T00:28:14.932Z,9.58
2018-07-24T00:30:44.187Z,8.80
2018-07-24T00:33:13.493Z,8.13
2018-07-24T00:35:42.688Z,8.30
2018-07-24T00:38:11.901Z,8.70
2018-07-24T00:40:41.180Z,9.13
2018-07-24T00:43:10.384Z,9.15
2018-07-24T00:45:39.604Z,8.90
2018-07-24T00:48:08.922Z,8.98
2018-07-24T00:50:38.147Z,8.70
2018-07-24T00:53:07.356Z,9.45
2018-07-24T00:55:36.605Z,8.93
2018-07-24T00:58:05.863Z,8.88
2018-07-24T01:00:35.121Z,8.85
2018-07-24T01:03:04.313Z,9.43
2018-07-24T01:05:33.545Z,8.98
2018-07-24T01:08:02.756Z,9.03
2018-07-24T01:10:31.964Z,8.48
2018-07-24T01:13:01.185Z,7.97
2018-07-24T01:15:30.392Z,8.03
2018-07-24T01:17:59.584Z,8.45
2018-07-24T01:20:31.289Z,9.08
2018-07-24T01:23:01.178Z,8.23
2018-07-24T01:25:30.610Z,9.18
2018-07-24T01:27:59.808Z,9.20
2018-07-24T01:30:28.771Z,7.90
2018-07-24T01:32:58.001Z,8.33
2018-07-24T01:35:27.225Z,8.90
2018-07-24T01:37:56.442Z,8.33
2018-07-24T01:40:25.693Z,8.08
2018-07-24T01:42:54.960Z,9.05
2018-07-24T01:45:24.165Z,9.45
2018-07-24T01:47:53.375Z,8.90
2018-07-24T01:50:22.626Z,9.08
2018-07-24T01:52:51.815Z,8.90
2018-07-24T01:55:20.993Z,9.20
2018-07-24T01:57:50.235Z,9.70
2018-07-24T02:00:19.420Z,9.40
2018-07-24T02:02:48.749Z,9.68
2018-07-24T02:05:17.925Z,10.43
2018-07-24T02:07:47.137Z,9.18
2018-07-24T02:10:16.336Z,9.13
2018-07-24T02:12:45.597Z,10.20
2018-07-24T02:15:14.815Z,10.75
2018-07-24T02:17:44.035Z,9.80
2018-07-24T02:20:13.252Z,10.00
2018-07-24T02:22:42.482Z,9.13
2018-07-24T02:25:11.770Z,10.08
2018-07-24T02:27:40.983Z,10.28
2018-07-24T02:30:10.196Z,10.03
2018-07-24T02:32:39.404Z,10.20
2018-07-24T02:35:08.623Z,9.53
2018-07-24T02:37:37.851Z,9.65
2018-07-24T02:40:07.075Z,9.68
2018-07-24T02:42:36.282Z,10.13
2018-07-24T02:45:07.352Z,9.23
2018-07-24T02:47:36.579Z,9.75
2018-07-24T02:50:05.944Z,9.28
2018-07-24T02:52:35.148Z,9.28
2018-07-24T02:55:04.342Z,9.58
2018-07-24T02:57:33.550Z,9.88
2018-07-24T03:00:02.744Z,9.50
2018-07-24T03:02:31.989Z,10.85
2018-07-24T03:05:01.191Z,9.70
2018-07-24T03:07:30.414Z,9.75
2018-07-24T03:09:59.609Z,10.00
2018-07-24T03:12:28.813Z,10.48
2018-07-24T03:14:58.034Z,10.78
2018-07-24T03:17:27.258Z,10.20
2018-07-24T03:19:56.467Z,10.78
2018-07-24T03:22:25.708Z,9.75
2018-07-24T03:24:54.961Z,10.00
2018-07-24T03:27:24.180Z,10.30
2018-07-24T03:29:53.428Z,10.23
2018-07-24T03:32:22.668Z,11.57
2018-07-24T03:34:51.880Z,10.43
2018-07-24T03:37:21.092Z,10.60
2018-07-24T03:39:50.317Z,10.40
2018-07-24T03:42:19.511Z,9.93
2018-07-24T03:44:48.742Z,11.10
2018-07-24T03:47:17.967Z,10.10
2018-07-24T03:49:47.218Z,10.75
2018-07-24T03:52:16.439Z,10.23
2018-07-24T03:54:45.669Z,9.88
2018-07-24T03:57:14.872Z,10.35
2018-07-24T03:59:44.080Z,9.85
2018-07-24T04:02:13.419Z,10.65
2018-07-24T04:04:42.602Z,10.23
2018-07-24T04:07:11.767Z,10.32
2018-07-24T04:09:40.994Z,10.68
2018-07-24T04:12:10.461Z,11.38
2018-07-24T04:14:39.750Z,10.65
2018-07-24T04:17:09.002Z,10.13
2018-07-24T04:19:38.233Z,11.43
2018-07-24T04:22:07.462Z,9.60
2018-07-24T04:24:36.692Z,9.60
2018-07-24T04:27:06.432Z,13.15
2018-07-24T04:29:35.673Z,10.82
2018-07-24T04:32:04.905Z,10.93
2018-07-24T04:34:34.202Z,10.18
2018-07-24T04:37:03.470Z,11.22
2018-07-24T04:39:32.800Z,10.45
2018-07-24T04:42:02.052Z,11.43
2018-07-24T04:44:31.306Z,12.03
2018-07-24T04:47:00.496Z,10.98
2018-07-24T04:49:29.765Z,10.68
2018-07-24T04:51:58.956Z,10.85
2018-07-24T04:54:28.219Z,11.05
2018-07-24T04:56:57.473Z,11.08
2018-07-24T04:59:26.688Z,10.98
2018-07-24T05:01:55.881Z,10.72
2018-07-24T05:04:25.094Z,11.20
2018-07-24T05:06:54.350Z,11.08
2018-07-24T05:09:23.557Z,10.05
2018-07-24T05:11:52.819Z,11.22
2018-07-24T05:14:23.138Z,10.65
2018-07-24T05:16:52.453Z,11.12
2018-07-24T05:19:21.574Z,11.22
2018-07-24T05:21:50.809Z,10.50
2018-07-24T05:24:20.000Z,11.10
2018-07-24T05:26:49.225Z,11.97
2018-07-24T05:29:18.473Z,11.03
2018-07-24T05:31:47.699Z,11.22
2018-07-24T05:34:16.941Z,10.80
2018-07-24T05:36:46.196Z,11.38
2018-07-24T05:39:15.435Z,11.53
2018-07-24T05:41:44.691Z,12.03
2018-07-24T05:44:13.856Z,10.60
2018-07-24T05:46:43.085Z,11.40
2018-07-24T05:49:12.285Z,12.60
2018-07-24T05:51:41.557Z,11.15
2018-07-24T05:54:10.751Z,11.38
2018-07-24T05:56:39.973Z,11.95
2018-07-24T05:59:09.188Z,11.90
2018-07-24T06:01:38.467Z,10.80
2018-07-24T06:04:07.650Z,11.25
2018-07-24T06:06:36.861Z,11.80
2018-07-24T06:09:08.756Z,11.63
2018-07-24T06:11:38.268Z,10.78
2018-07-24T06:14:07.501Z,10.88
2018-07-24T06:16:36.734Z,11.28
2018-07-24T06:19:05.969Z,11.12
2018-07-24T06:21:35.192Z,10.35
2018-07-24T06:24:04.425Z,10.82
2018-07-24T06:26:33.656Z,10.80
2018-07-24T06:29:02.873Z,11.88
2018-07-24T06:31:32.113Z,10.53
2018-07-24T06:34:01.324Z,10.28
2018-07-24T06:36:30.876Z,10.80
2018-07-24T06:39:00.159Z,10.23
2018-07-24T06:41:29.389Z,10.30
2018-07-24T06:43:58.613Z,11.20
2018-07-24T06:46:27.882Z,11.73
2018-07-24T06:48:57.122Z,10.13
2018-07-24T06:51:26.373Z,11.20
2018-07-24T06:53:55.617Z,11.03
2018-07-24T06:56:24.850Z,12.85
2018-07-24T06:58:54.070Z,10.68
2018-07-24T07:01:23.282Z,10.60
2018-07-24T07:03:52.481Z,10.38
2018-07-24T07:06:22.498Z,10.35
2018-07-24T07:08:51.799Z,11.22
2018-07-24T07:11:21.007Z,11.00
2018-07-24T07:13:50.277Z,10.60
2018-07-24T07:16:19.531Z,9.93
2018-07-24T07:18:48.717Z,11.57
2018-07-24T07:21:17.949Z,11.68
2018-07-24T07:23:47.152Z,11.45
2018-07-24T07:26:16.432Z,9.78
2018-07-24T07:28:45.608Z,8.90
2018-07-24T07:31:14.808Z,8.50
2018-07-24T07:33:44.044Z,8.68
2018-07-24T07:36:13.241Z,8.43
2018-07-24T07:38:42.437Z,6.60
2018-07-24T07:41:11.404Z,5.33
2018-07-24T07:43:40.591Z,7.60
2018-07-24T07:46:09.859Z,6.65
2018-07-24T07:48:39.057Z,6.37
2018-07-24T07:51:08.260Z,6.15
2018-07-24T07:53:37.445Z,6.17
2018-07-24T07:56:06.896Z,6.45
2018-07-24T07:58:36.116Z,6.87
2018-07-24T08:01:05.336Z,6.45
2018-07-24T08:03:34.584Z,5.95
2018-07-24T08:06:03.782Z,5.58
2018-07-24T08:08:32.987Z,5.30
2018-07-24T08:11:02.179Z,5.47
2018-07-24T08:13:31.479Z,7.58
2018-07-24T08:16:00.652Z,5.08
2018-07-24T08:18:29.870Z,4.62
2018-07-24T08:20:59.170Z,5.33
2018-07-24T08:23:28.989Z,4.70
2018-07-24T08:25:58.314Z,3.95
2018-07-24T08:28:27.511Z,4.17
2018-07-24T08:30:56.851Z,3.50
2018-07-24T08:33:26.062Z,3.33
2018-07-24T08:35:55.928Z,3.77
2018-07-24T08:38:25.277Z,3.58
2018-07-24T08:40:54.535Z,5.37
2018-07-24T08:43:23.740Z,3.98
2018-07-24T08:45:53.000Z,3.77
2018-07-24T08:48:22.245Z,3.40
2018-07-24T08:50:51.220Z,4.42
2018-07-24T08:53:20.628Z,5.10
2018-07-24T08:55:50.121Z,4.08
2018-07-24T08:58:18.933Z,4.20
2018-07-24T09:00:48.176Z,3.50
2018-07-24T09:03:17.473Z,3.67
2018-07-24T09:05:46.743Z,4.40
2018-07-24T09:08:15.967Z,4.40
2018-07-24T09:10:45.229Z,4.78
2018-07-24T09:13:14.432Z,4.17
2018-07-24T09:15:43.657Z,4.08
2018-07-24T09:18:12.865Z,4.50
2018-07-24T09:20:42.102Z,4.33
2018-07-24T09:23:11.369Z,4.95
2018-07-24T09:25:40.630Z,4.62
2018-07-24T09:28:09.864Z,3.60
2018-07-24T09:30:39.142Z,4.15
2018-07-24T09:33:08.429Z,4.37
2018-07-24T09:35:37.649Z,4.95
2018-07-24T09:38:07.067Z,4.72
2018-07-24T09:40:36.301Z,5.25
2018-07-24T09:43:06.089Z,5.47
2018-07-24T09:45:35.928Z,3.47
2018-07-24T09:48:05.166Z,3.92
2018-07-24T09:50:34.433Z,5.05
2018-07-24T09:53:03.621Z,3.90
2018-07-24T09:55:32.856Z,5.92
2018-07-24T09:58:02.068Z,3.70
2018-07-24T10:00:36.705Z,3.50
2018-07-24T10:03:05.896Z,3.33
2018-07-24T10:05:35.127Z,4.15
2018-07-24T10:08:04.397Z,3.55
2018-07-24T10:10:33.585Z,3.45
2018-07-24T10:13:02.956Z,3.72
2018-07-24T10:15:32.069Z,4.00
2018-07-24T10:18:01.298Z,3.50
2018-07-24T10:20:30.287Z,3.60
2018-07-24T10:22:59.583Z,3.67
2018-07-24T10:25:28.843Z,3.37
2018-07-24T10:27:58.084Z,2.92
2018-07-24T10:30:27.563Z,3.52
2018-07-24T10:32:56.784Z,3.92
2018-07-24T10:35:26.034Z,2.70
2018-07-24T10:37:55.285Z,3.60
2018-07-24T10:40:24.523Z,3.27
2018-07-24T10:42:53.744Z,4.60
2018-07-24T10:45:22.971Z,3.37
2018-07-24T10:47:52.265Z,2.85
2018-07-24T10:50:21.534Z,3.98
2018-07-24T10:52:50.504Z,7.37
2018-07-24T10:55:19.713Z,3.10
2018-07-24T10:57:49.300Z,3.90
2018-07-24T11:00:18.507Z,3.20
2018-07-24T11:02:47.834Z,2.60
2018-07-24T11:05:47.667Z,2.90
2018-07-24T11:08:16.893Z,2.70
2018-07-24T11:10:46.597Z,2.47
2018-07-24T11:13:15.897Z,3.40
2018-07-24T11:15:45.251Z,2.65
2018-07-24T11:18:14.547Z,3.70
2018-07-24T11:20:43.901Z,2.40
2018-07-24T11:23:13.083Z,2.30
2018-07-24T11:25:42.146Z,3.35
2018-07-24T11:28:11.370Z,2.17
2018-07-24T11:30:40.566Z,2.55
2018-07-24T11:33:09.924Z,2.50
2018-07-24T11:35:39.158Z,3.08
2018-07-24T11:38:08.869Z,4.65
2018-07-24T11:40:38.093Z,2.30
2018-07-24T11:43:07.347Z,2.45
2018-07-24T11:45:36.571Z,2.45
2018-07-24T11:48:05.839Z,2.55
2018-07-24T11:50:35.070Z,2.47
2018-07-24T11:53:04.265Z,3.20
2018-07-24T11:55:33.486Z,3.83
2018-07-24T11:58:02.688Z,4.85
2018-07-24T12:00:32.008Z,2.92
2018-07-24T12:03:01.212Z,4.00
2018-07-24T12:05:30.475Z,4.97
2018-07-24T12:07:59.741Z,3.58
2018-07-24T12:10:28.899Z,2.47
2018-07-24T12:12:58.127Z,3.80
2018-07-24T12:15:27.380Z,2.05
2018-07-24T12:17:56.569Z,2.67
2018-07-24T12:20:25.772Z,2.75
2018-07-24T12:22:54.732Z,2.47
2018-07-24T12:25:23.944Z,2.30
2018-07-24T12:27:53.153Z,3.00
2018-07-24T12:30:22.369Z,3.15
2018-07-24T12:32:51.568Z,2.33
2018-07-24T12:35:20.813Z,1.90
2018-07-24T12:37:50.029Z,2.65
2018-07-24T12:40:19.037Z,3.12
2018-07-24T12:42:48.256Z,1.85
2018-07-24T12:45:17.500Z,3.30
2018-07-24T12:47:46.685Z,1.80
2018-07-24T12:50:15.919Z,2.17
2018-07-24T12:52:45.118Z,2.12
2018-07-24T12:55:14.291Z,3.58
2018-07-24T12:57:43.524Z,2.90
2018-07-24T13:00:12.885Z,2.83
2018-07-24T13:02:42.125Z,2.37
2018-07-24T13:05:11.381Z,2.77
2018-07-24T13:07:40.830Z,2.02
2018-07-24T13:10:10.084Z,3.22
2018-07-24T13:12:39.333Z,1.90
2018-07-24T13:15:09.206Z,4.55
2018-07-24T13:17:38.521Z,4.60
2018-07-24T13:20:07.739Z,1.77
2018-07-24T13:22:36.931Z,2.83
2018-07-24T13:25:06.293Z,2.00
2018-07-24T13:27:35.501Z,2.12
2018-07-24T13:30:05.090Z,2.30
2018-07-24T13:32:34.375Z,1.75
2018-07-24T13:35:03.580Z,2.92
2018-07-24T13:37:32.883Z,2.20
2018-07-24T13:40:02.354Z,3.47
2018-07-24T13:42:31.586Z,3.15
2018-07-24T13:45:00.808Z,2.25
2018-07-24T13:47:30.036Z,3.83
2018-07-24T13:49:59.273Z,3.10
2018-07-24T13:52:28.488Z,2.20
2018-07-24T13:54:57.708Z,1.75
2018-07-24T13:57:26.879Z,2.20
2018-07-24T13:59:56.073Z,1.92
2018-07-24T14:02:25.285Z,15.32
2018-07-24T14:04:54.550Z,2.70
2018-07-24T14:07:23.764Z,3.90
2018-07-24T14:09:52.968Z,3.47
2018-07-24T14:12:22.184Z,2.67
2018-07-24T14:14:51.452Z,3.62
2018-07-24T14:17:20.718Z,3.10
2018-07-24T14:19:49.942Z,6.17
2018-07-24T14:22:19.174Z,11.03
2018-07-24T14:24:48.399Z,2.20
2018-07-24T14:27:17.568Z,4.47
2018-07-24T14:29:46.816Z,2.45
2018-07-24T14:32:16.040Z,2.17
2018-07-24T14:34:45.306Z,3.85
2018-07-24T14:37:14.513Z,2.25
2018-07-24T14:39:44.024Z,2.52
2018-07-24T14:42:13.240Z,2.83
2018-07-24T14:44:43.683Z,3.37
2018-07-24T14:47:12.883Z,2.10
2018-07-24T14:49:42.060Z,3.00
2018-07-24T14:52:11.276Z,2.33
2018-07-24T14:54:40.481Z,2.70
2018-07-24T14:57:09.748Z,2.72
2018-07-24T14:59:38.960Z,2.30
2018-07-24T15:02:08.187Z,2.37
2018-07-24T15:04:37.392Z,2.15
2018-07-24T15:07:06.677Z,3.87
2018-07-24T15:09:35.878Z,2.30
2018-07-24T15:12:05.118Z,4.20
2018-07-24T15:14:34.360Z,6.28
2018-07-24T15:17:03.582Z,3.17
2018-07-24T15:19:32.807Z,3.40
2018-07-24T15:22:02.025Z,2.15
2018-07-24T15:24:31.244Z,2.75
2018-07-24T15:27:00.467Z,3.37
2018-07-24T15:29:29.661Z,2.30
2018-07-24T15:31:58.877Z,2.05
2018-07-24T15:34:28.210Z,1.98
2018-07-24T15:36:57.293Z,3.67
2018-07-24T15:39:26.488Z,6.53
2018-07-24T15:41:55.656Z,2.85
2018-07-24T15:44:24.877Z,2.20
2018-07-24T15:46:54.319Z,2.10
2018-07-24T15:49:23.489Z,4.03
2018-07-24T15:51:52.703Z,2.60
2018-07-24T15:54:22.041Z,3.25
2018-07-24T15:56:54.551Z,2.83
2018-07-24T15:59:23.761Z,2.52
2018-07-24T16:01:52.963Z,2.12
2018-07-24T16:04:22.160Z,2.70
2018-07-24T16:06:51.385Z,2.37
2018-07-24T16:09:20.601Z,3.05
2018-07-24T16:11:49.764Z,3.37
2018-07-24T16:14:18.977Z,3.42
2018-07-24T16:16:48.149Z,2.50
2018-07-24T16:19:17.329Z,2.27
2018-07-24T16:21:46.500Z,2.70
2018-07-24T16:24:15.684Z,2.52
2018-07-24T16:26:44.860Z,2.20
2018-07-24T16:29:14.066Z,2.50
2018-07-24T16:31:43.740Z,2.45
2018-07-24T16:34:12.924Z,4.97
2018-07-24T16:36:42.153Z,2.45
2018-07-24T16:39:12.256Z,2.47
2018-07-24T16:41:41.809Z,2.75
2018-07-24T16:44:10.990Z,3.45
2018-07-24T16:46:40.185Z,3.25
2018-07-24T16:49:09.443Z,4.20
2018-07-24T16:51:38.652Z,2.80
2018-07-24T16:54:07.849Z,2.33
2018-07-24T16:56:37.496Z,2.52
2018-07-24T16:59:06.825Z,4.15
2018-07-24T17:01:36.054Z,4.40
2018-07-24T17:04:05.245Z,2.67
2018-07-24T17:06:34.425Z,4.03
2018-07-24T17:09:06.170Z,4.85
2018-07-24T17:11:35.487Z,3.00
2018-07-24T17:14:04.823Z,4.33
2018-07-24T17:16:34.037Z,2.42
2018-07-24T17:19:03.563Z,3.25
2018-07-24T17:21:35.523Z,2.42
2018-07-24T17:24:04.732Z,2.37
2018-07-24T17:26:34.073Z,2.08
2018-07-24T17:29:03.222Z,2.60
2018-07-24T17:31:32.663Z,3.02
2018-07-24T17:34:01.980Z,3.30
2018-07-24T17:36:31.337Z,2.45
2018-07-24T17:39:00.548Z,2.72
2018-07-24T17:41:29.789Z,2.42
2018-07-24T17:43:59.054Z,3.47
2018-07-24T17:46:28.302Z,3.33
2018-07-24T17:48:57.671Z,3.83
2018-07-24T17:51:26.950Z,3.95
2018-07-24T17:53:56.064Z,2.33
2018-07-24T17:56:25.332Z,4.35
2018-07-24T17:58:54.768Z,3.25
2018-07-24T18:01:24.026Z,2.90
2018-07-24T18:03:53.228Z,3.20
2018-07-24T18:06:22.459Z,3.55
2018-07-24T18:08:51.668Z,3.65
2018-07-24T18:11:20.889Z,3.50
2018-07-24T18:13:50.086Z,3.55
2018-07-24T18:16:19.295Z,4.15
2018-07-24T18:18:48.489Z,2.58
2018-07-24T18:21:17.693Z,2.65
2018-07-24T18:23:46.912Z,2.92
2018-07-24T18:26:16.092Z,3.50
2018-07-24T18:28:45.289Z,2.87
2018-07-24T18:31:14.264Z,2.85
2018-07-24T18:33:43.502Z,3.83
2018-07-24T18:36:12.689Z,4.10
2018-07-24T18:38:41.983Z,2.72
2018-07-24T18:41:11.160Z,4.20
2018-07-24T18:43:40.420Z,3.00
2018-07-24T18:46:09.593Z,5.42
2018-07-24T18:48:38.796Z,4.15
2018-07-24T18:51:08.000Z,3.00
2018-07-24T18:53:37.284Z,8.35
2018-07-24T18:56:06.486Z,3.58
2018-07-24T18:58:35.707Z,4.08
2018-07-24T19:01:05.134Z,3.33
2018-07-24T19:03:34.316Z,4.65
2018-07-24T19:06:03.583Z,4.00
2018-07-24T19:08:32.844Z,3.35
2018-07-24T19:11:02.386Z,3.10
2018-07-24T19:13:31.626Z,3.42
2018-07-24T19:16:02.311Z,4.40
2018-07-24T19:18:31.555Z,3.77
2018-07-24T19:21:00.804Z,3.37
2018-07-24T19:23:30.012Z,3.85
2018-07-24T19:25:59.188Z,4.10
2018-07-24T19:28:28.405Z,3.70
2018-07-24T19:30:57.652Z,3.77
2018-07-24T19:33:26.835Z,4.80
2018-07-24T19:35:56.013Z,3.70
2018-07-24T19:38:25.360Z,3.40
2018-07-24T19:40:54.621Z,4.17
2018-07-24T19:43:23.868Z,3.58
2018-07-24T19:45:53.090Z,3.50
2018-07-24T19:48:22.297Z,5.15
2018-07-24T19:50:51.553Z,4.35
2018-07-24T19:53:20.772Z,3.62
2018-07-24T19:55:49.949Z,6.25
2018-07-24T19:58:19.160Z,4.95
2018-07-24T20:00:48.389Z,3.60
2018-07-24T20:03:17.600Z,5.03
2018-07-24T20:05:46.858Z,4.78
2018-07-24T20:08:16.103Z,5.87
2018-07-24T20:10:45.317Z,5.30
2018-07-24T20:13:14.593Z,5.30
2018-07-24T20:15:43.809Z,4.25
2018-07-24T20:18:13.041Z,4.55
2018-07-24T20:20:42.308Z,3.80
2018-07-24T20:23:11.695Z,3.80
2018-07-24T20:25:40.868Z,3.85
2018-07-24T20:28:10.093Z,3.90
2018-07-24T20:30:39.333Z,3.10
2018-07-24T20:33:08.553Z,4.03
2018-07-24T20:35:37.804Z,4.03
2018-07-24T20:38:07.041Z,3.55
2018-07-24T20:40:36.261Z,6.08
2018-07-24T20:43:05.499Z,3.90
2018-07-24T20:45:34.741Z,4.33
2018-07-24T20:48:04.374Z,5.35
2018-07-24T20:50:33.603Z,7.10
2018-07-24T20:53:02.830Z,4.53
2018-07-24T20:55:32.078Z,5.72
2018-07-24T20:58:01.297Z,5.62
2018-07-24T21:00:30.527Z,6.65
2018-07-24T21:02:59.841Z,5.53
2018-07-24T21:05:29.076Z,4.00
2018-07-24T21:07:58.292Z,4.05
2018-07-24T21:10:27.560Z,3.70
2018-07-24T21:12:56.829Z,3.22
2018-07-24T21:15:26.057Z,6.22
2018-07-24T21:17:55.340Z,4.30
2018-07-24T21:20:24.589Z,4.62
2018-07-24T21:22:53.794Z,7.35
2018-07-24T21:25:23.060Z,8.23
2018-07-24T21:27:52.707Z,3.80
2018-07-24T21:30:21.999Z,4.60
2018-07-24T21:32:51.230Z,10.15
2018-07-24T21:35:20.452Z,5.20
2018-07-24T21:37:50.354Z,5.95
2018-07-24T21:40:19.667Z,4.28
2018-07-24T21:42:49.533Z,7.47
2018-07-24T21:45:18.745Z,4.55
2018-07-24T21:47:48.014Z,6.33
2018-07-24T21:50:17.243Z,4.45
2018-07-24T21:52:46.509Z,6.83
2018-07-24T21:55:15.715Z,3.70
2018-07-24T21:57:44.958Z,4.12
2018-07-24T22:00:14.227Z,4.03
2018-07-24T22:02:43.408Z,3.47
2018-07-24T22:05:12.608Z,4.12
2018-07-24T22:07:41.830Z,4.22
2018-07-24T22:10:16.250Z,4.70
2018-07-24T22:12:45.468Z,4.65
2018-07-24T22:15:19.541Z,4.45
2018-07-24T22:17:48.828Z,6.58
2018-07-24T22:20:18.270Z,3.62
2018-07-24T22:22:47.590Z,3.72
2018-07-24T22:25:17.006Z,4.78
2018-07-24T22:27:46.232Z,5.53
2018-07-24T22:30:15.445Z,4.62
2018-07-24T22:32:44.703Z,3.92
2018-07-24T22:35:13.895Z,4.33
2018-07-24T22:37:43.105Z,5.08
2018-07-24T22:40:15.605Z,4.55
2018-07-24T22:42:44.805Z,4.58
2018-07-24T22:45:13.969Z,4.78
2018-07-24T22:47:43.204Z,4.22
2018-07-24T22:50:12.402Z,5.17
2018-07-24T22:52:41.627Z,4.55
2018-07-24T22:55:10.836Z,4.12
2018-07-24T22:57:40.037Z,4.10
2018-07-24T23:00:09.236Z,5.37
2018-07-24T23:02:38.480Z,3.92
2018-07-24T23:05:07.670Z,4.42
2018-07-24T23:07:36.941Z,3.92
2018-07-24T23:10:06.373Z,5.17
2018-07-24T23:12:35.346Z,3.95
2018-07-24T23:15:04.985Z,4.30
2018-07-24T23:17:34.192Z,4.20
2018-07-24T23:20:03.147Z,6.00
2018-07-24T23:22:32.422Z,5.58
2018-07-24T23:25:01.653Z,6.08
2018-07-24T23:27:30.873Z,6.92
2018-07-24T23:30:00.141Z,4.62
2018-07-24T23:32:29.380Z,5.35
2018-07-24T23:34:58.622Z,8.63
2018-07-24T23:37:27.843Z,6.25
2018-07-24T23:39:57.125Z,5.50
2018-07-24T23:42:26.367Z,4.47
2018-07-24T23:44:55.806Z,4.42
2018-07-24T23:47:24.837Z,4.12
2018-07-24T23:49:54.055Z,4.50
2018-07-24T23:52:23.321Z,7.83
2018-07-24T23:54:52.624Z,4.50
2018-07-24T23:57:21.800Z,4.12
2018-07-24T23:59:51.021Z,4.70
